Time;durP1;ratioP1;P1;durP2;ratioP2;P2;SDS_P1;SDS_P2;PMS_P1;PMS_P2;Temp;Humidity;BMP_temperature;BMP_pressure;BME280_temperature;BME280_humidity;BME280_pressure;Samples;Min_cycle;Max_cycle;Signal;HPM_P1;HPM_P2
2022/05/30 00:01:08;;;;;;;22.07;21.17;;;10.00;46.50;;;;;;5003456;28;20421;-84
2022/05/30 00:03:34;;;;;;;22.80;21.80;;;10.00;46.80;;;;;;4987858;28;20424;-82
2022/05/30 00:06:00;;;;;;;22.67;21.77;;;9.90;47.90;;;;;;5003506;28;20437;-83
2022/05/30 00:08:26;;;;;;;22.00;21.10;;;9.90;48.60;;;;;;4988192;28;20912;-83
2022/05/30 00:10:51;;;;;;;22.43;21.53;;;9.90;48.60;;;;;;5003600;28;20175;-83
2022/05/30 00:13:17;;;;;;;23.00;22.10;;;9.90;49.30;;;;;;5003883;28;20467;-83
2022/05/30 00:15:43;;;;;;;22.80;21.80;;;9.90;49.30;;;;;;5004513;28;20480;-82
2022/05/30 00:18:09;;;;;;;21.67;20.73;;;9.80;48.90;;;;;;5004059;28;20619;-83
2022/05/30 00:20:36;;;;;;;23.27;22.27;;;9.90;49.20;;;;;;5005529;28;20205;-82
2022/05/30 00:23:03;;;;;;;21.70;20.60;;;9.80;49.50;;;;;;5004243;28;20488;-83
2022/05/30 00:25:29;;;;;;;21.80;20.80;;;9.80;50.00;;;;;;5003846;28;20532;-83
2022/05/30 00:27:54;;;;;;;22.50;21.60;;;9.70;49.90;;;;;;5004213;28;20868;-83
2022/05/30 00:30:20;;;;;;;23.10;22.10;;;9.80;50.80;;;;;;5003963;28;20273;-83
2022/05/30 00:32:45;;;;;;;21.30;20.40;;;9.80;50.40;;;;;;5004751;28;20189;-84
2022/05/30 00:35:13;;;;;;;21.83;20.93;;;9.80;50.70;;;;;;4988260;28;20182;-83
2022/05/30 00:37:38;;;;;;;23.30;22.30;;;9.90;49.80;;;;;;5003576;28;20221;-82
2022/05/30 00:40:05;;;;;;;21.57;20.77;;;9.90;49.70;;;;;;4988863;28;20414;-85
2022/05/30 00:42:31;;;;;;;22.53;21.33;;;9.90;49.70;;;;;;5005337;28;20182;-83
2022/05/30 00:44:57;;;;;;;22.70;21.77;;;10.00;49.00;;;;;;5005612;28;20941;-83
2022/05/30 00:47:25;;;;;;;23.00;21.80;;;9.90;49.50;;;;;;4990527;28;20444;-83
2022/05/30 00:49:51;;;;;;;23.20;22.20;;;9.90;50.30;;;;;;5005186;28;20429;-82
2022/05/30 00:52:22;;;;;;;23.27;22.27;;;9.90;49.70;;;;;;5003528;28;20515;-82
2022/05/30 00:55:00;;;;;;;23.13;22.17;;;9.80;50.70;;;;;;5004167;28;20413;-81
2022/05/30 00:57:27;;;;;;;23.10;22.20;;;9.70;50.80;;;;;;5003636;28;20499;-82
2022/05/30 00:59:55;;;;;;;23.10;22.10;;;9.70;51.40;;;;;;5004570;28;20904;-82
2022/05/30 01:02:23;;;;;;;23.43;22.43;;;9.70;51.40;;;;;;5004387;28;20421;-83
2022/05/30 01:07:35;;;;;;;23.27;22.07;;;9.70;51.20;;;;;;4990949;28;20456;-83
2022/05/30 01:10:03;;;;;;;22.27;21.27;;;9.70;51.30;;;;;;5005077;28;20428;-83
2022/05/30 01:12:43;;;;;;;22.37;21.47;;;9.60;52.00;;;;;;5004075;28;20459;-83
2022/05/30 01:15:13;;;;;;;23.57;22.40;;;9.60;52.10;;;;;;5002291;28;20476;-84
2022/05/30 01:18:03;;;;;;;23.70;22.67;;;9.60;52.00;;;;;;5001882;28;20469;-83
2022/05/30 01:20:44;;;;;;;23.53;22.47;;;9.60;52.20;;;;;;4980600;28;20791;-83
2022/05/30 01:23:42;;;;;;;23.17;22.17;;;9.60;52.90;;;;;;4986424;28;20446;-82
2022/05/30 01:26:14;;;;;;;24.03;22.93;;;9.60;52.10;;;;;;4979176;28;20831;-84
2022/05/30 01:28:55;;;;;;;24.40;23.30;;;9.60;52.50;;;;;;4986825;28;20823;-83
2022/05/30 01:31:22;;;;;;;24.40;23.30;;;9.70;52.70;;;;;;5003111;28;20513;-83
2022/05/30 01:33:48;;;;;;;24.40;23.17;;;9.60;53.10;;;;;;5003502;28;20424;-84
2022/05/30 01:36:14;;;;;;;23.23;22.13;;;9.50;53.50;;;;;;4988095;28;20753;-84
2022/05/30 01:38:40;;;;;;;23.83;22.63;;;9.50;53.70;;;;;;5004701;28;20428;-83
2022/05/30 01:41:06;;;;;;;23.40;22.40;;;9.50;53.80;;;;;;5004965;28;20181;-84
2022/05/30 01:43:33;;;;;;;23.40;22.40;;;9.50;53.70;;;;;;5005035;28;20469;-83
2022/05/30 01:46:07;;;;;;;23.53;22.43;;;9.50;53.90;;;;;;5003250;28;20479;-83
2022/05/30 01:48:33;;;;;;;24.20;22.83;;;9.40;54.50;;;;;;5002577;28;20843;-82
2022/05/30 01:51:00;;;;;;;24.27;23.17;;;9.40;54.60;;;;;;5001724;28;20544;-83
2022/05/30 01:53:26;;;;;;;23.87;22.67;;;9.50;54.20;;;;;;5001798;28;20190;-82
2022/05/30 01:55:52;;;;;;;23.07;22.17;;;9.60;53.10;;;;;;5002001;28;20432;-83
2022/05/30 01:58:18;;;;;;;23.63;22.63;;;9.60;52.80;;;;;;5001577;28;20964;-82
2022/05/30 02:00:43;;;;;;;23.30;22.30;;;9.50;52.90;;;;;;4999680;28;20271;-83
2022/05/30 02:03:09;;;;;;;24.00;23.00;;;9.50;53.80;;;;;;4987203;28;20189;-83
2022/05/30 02:05:35;;;;;;;23.73;22.73;;;9.50;53.40;;;;;;4999761;28;20178;-84
2022/05/30 02:08:04;;;;;;;23.17;22.17;;;9.50;53.50;;;;;;4984625;28;20174;-83
2022/05/30 02:10:33;;;;;;;22.30;21.33;;;9.40;53.20;;;;;;4999079;28;20583;-84
2022/05/30 02:12:59;;;;;;;23.30;22.40;;;9.50;53.20;;;;;;4998198;28;20447;-82
2022/05/30 02:15:25;;;;;;;24.47;23.47;;;9.50;52.60;;;;;;4997800;28;20467;-83
2022/05/30 02:17:52;;;;;;;22.83;21.73;;;9.50;52.40;;;;;;4998651;28;20469;-83
2022/05/30 02:20:18;;;;;;;22.00;20.90;;;9.40;52.50;;;;;;4997817;28;20426;-83
2022/05/30 02:22:45;;;;;;;22.90;21.90;;;9.40;52.60;;;;;;4997771;28;20432;-82
2022/05/30 02:25:12;;;;;;;24.07;22.87;;;9.50;51.90;;;;;;4999559;28;21080;-83
2022/05/30 02:27:38;;;;;;;21.70;20.73;;;9.50;52.00;;;;;;4983880;28;20413;-83
2022/05/30 02:30:05;;;;;;;24.43;23.37;;;9.40;52.50;;;;;;4998365;28;20421;-83
2022/05/30 02:32:31;;;;;;;23.30;22.00;;;9.50;52.10;;;;;;4998000;28;20436;-83
2022/05/30 02:37:40;;;;;;;24.33;23.30;;;9.20;52.30;;;;;;4983650;28;20463;-82
2022/05/30 02:40:07;;;;;;;23.17;22.27;;;9.20;53.30;;;;;;4998660;28;20836;-82
2022/05/30 02:42:32;;;;;;;24.13;23.07;;;9.20;53.30;;;;;;4997915;28;20198;-83
2022/05/30 02:44:59;;;;;;;25.03;23.93;;;9.20;54.00;;;;;;4998873;28;20426;-82
2022/05/30 02:47:24;;;;;;;23.60;22.60;;;9.20;53.60;;;;;;4999219;28;20280;-82
2022/05/30 02:49:50;;;;;;;25.90;24.70;;;9.10;53.80;;;;;;5002920;28;20964;-83
2022/05/30 02:52:16;;;;;;;24.30;23.00;;;9.10;54.30;;;;;;5003827;28;20186;-83
2022/05/30 02:54:41;;;;;;;25.40;24.20;;;9.00;54.30;;;;;;5002636;28;20189;-82
2022/05/30 02:57:08;;;;;;;23.90;22.90;;;9.00;54.70;;;;;;5003186;28;20702;-83
2022/05/30 02:59:34;;;;;;;23.40;22.47;;;9.10;54.80;;;;;;5002363;28;20178;-83
2022/05/30 03:01:59;;;;;;;24.80;23.70;;;8.90;55.30;;;;;;5003060;28;20429;-84
2022/05/30 03:04:25;;;;;;;24.90;23.50;;;9.00;55.40;;;;;;4987718;28;20170;-83
2022/05/30 03:06:51;;;;;;;26.50;25.27;;;9.10;55.20;;;;;;5002041;28;20190;-83
2022/05/30 03:09:18;;;;;;;27.87;26.37;;;8.90;55.80;;;;;;5002735;28;20661;-83
2022/05/30 03:11:44;;;;;;;26.70;25.50;;;8.70;55.60;;;;;;5002873;28;20429;-83
2022/05/30 03:14:09;;;;;;;24.53;23.33;;;8.80;55.80;;;;;;5002247;28;20421;-82
2022/05/30 03:16:35;;;;;;;26.50;25.20;;;8.70;55.80;;;;;;5001230;28;20221;-82
2022/05/30 03:19:00;;;;;;;26.57;25.47;;;8.60;55.90;;;;;;5001528;28;20689;-83
2022/05/30 03:21:26;;;;;;;26.07;24.87;;;8.60;55.70;;;;;;5001944;28;20237;-83
2022/05/30 03:23:53;;;;;;;26.20;24.90;;;8.80;55.10;;;;;;4986268;28;20185;-82
2022/05/30 03:26:19;;;;;;;25.87;24.63;;;8.90;55.30;;;;;;5002772;28;20268;-83
2022/05/30 03:28:45;;;;;;;25.83;24.73;;;8.90;54.60;;;;;;5001920;28;20439;-83
2022/05/30 03:31:11;;;;;;;26.40;25.10;;;8.90;54.80;;;;;;5001793;28;20424;-83
2022/05/30 03:33:38;;;;;;;25.90;24.70;;;8.90;54.80;;;;;;5003003;28;20634;-84
2022/05/30 03:36:11;;;;;;;26.03;24.83;;;8.90;54.70;;;;;;5001778;28;20208;-83
2022/05/30 03:38:37;;;;;;;25.33;24.17;;;8.90;54.90;;;;;;5002678;28;20543;-83
2022/05/30 03:41:02;;;;;;;26.00;24.60;;;8.90;55.10;;;;;;5001986;28;20435;-83
2022/05/30 03:43:28;;;;;;;26.73;25.40;;;8.90;54.50;;;;;;5000863;28;20224;-83
2022/05/30 03:45:54;;;;;;;26.67;25.47;;;8.80;54.90;;;;;;5001880;28;20767;-83
2022/05/30 03:48:21;;;;;;;25.47;24.37;;;8.80;54.70;;;;;;4984666;28;20186;-84
2022/05/30 03:50:48;;;;;;;26.57;25.30;;;8.80;55.20;;;;;;5002682;28;20232;-83
2022/05/30 03:53:14;;;;;;;26.67;25.23;;;8.80;55.30;;;;;;5003667;28;20422;-83
2022/05/30 03:55:44;;;;;;;26.87;25.57;;;8.80;54.80;;;;;;5004128;28;20464;-84
2022/05/30 03:58:11;;;;;;;26.20;25.10;;;8.80;55.30;;;;;;5000103;28;20460;-84
2022/05/30 04:00:39;;;;;;;25.90;24.50;;;8.80;54.80;;;;;;4998012;28;20894;-82
2022/05/30 04:03:05;;;;;;;28.47;27.07;;;8.80;54.80;;;;;;4997637;28;20429;-82
2022/05/30 04:05:32;;;;;;;31.07;29.50;;;8.80;54.50;;;;;;4999420;28;20560;-81
2022/05/30 04:07:57;;;;;;;28.90;27.50;;;8.80;54.80;;;;;;4999459;28;20425;-82
2022/05/30 04:10:23;;;;;;;27.97;26.57;;;8.90;54.90;;;;;;5000116;28;20796;-82
2022/05/30 04:12:49;;;;;;;28.63;27.30;;;8.90;54.70;;;;;;4999938;28;20607;-82
2022/05/30 04:15:19;;;;;;;30.93;29.40;;;8.80;54.80;;;;;;4999840;28;20441;-83
2022/05/30 04:17:45;;;;;;;30.50;29.00;;;8.70;54.70;;;;;;4997760;28;20465;-82
2022/05/30 04:20:11;;;;;;;29.30;28.00;;;8.80;55.40;;;;;;4995878;28;20420;-80
2022/05/30 04:22:37;;;;;;;27.23;25.97;;;8.90;55.50;;;;;;4999012;28;20170;-81
2022/05/30 04:25:03;;;;;;;26.63;25.30;;;9.00;54.70;;;;;;4999214;28;20471;-81
2022/05/30 04:27:29;;;;;;;27.40;26.00;;;9.00;54.20;;;;;;4999698;28;20178;-81
2022/05/30 04:29:55;;;;;;;25.80;24.37;;;9.00;53.40;;;;;;4999616;28;20429;-82
2022/05/30 04:32:22;;;;;;;26.47;25.17;;;8.90;53.10;;;;;;4997881;28;20522;-81
2022/05/30 04:34:48;;;;;;;24.30;23.10;;;8.90;53.80;;;;;;4997998;28;20209;-81
2022/05/30 04:37:17;;;;;;;28.93;27.50;;;9.00;53.70;;;;;;5000670;28;20461;-83
2022/05/30 04:39:43;;;;;;;29.03;27.70;;;9.10;53.70;;;;;;5001449;28;20417;-82
2022/05/30 04:42:08;;;;;;;28.03;26.53;;;9.20;53.40;;;;;;5002559;28;20476;-83
2022/05/30 04:44:37;;;;;;;26.40;25.03;;;9.10;52.00;;;;;;4998488;28;20178;-81
2022/05/30 04:47:04;;;;;;;29.40;27.90;;;9.20;51.70;;;;;;5005184;28;20432;-82
2022/05/30 04:49:30;;;;;;;28.30;26.90;;;9.30;51.80;;;;;;5002146;28;20519;-82
2022/05/30 04:51:56;;;;;;;28.40;27.00;;;9.40;51.40;;;;;;5003052;28;20523;-82
2022/05/30 04:54:25;;;;;;;29.13;27.70;;;9.40;51.10;;;;;;5002491;28;20483;-81
2022/05/30 04:56:51;;;;;;;27.93;26.67;;;9.20;51.20;;;;;;5000448;28;20205;-82
2022/05/30 04:59:17;;;;;;;28.37;27.07;;;9.30;51.10;;;;;;5001031;28;20421;-82
2022/05/30 05:01:43;;;;;;;28.37;27.07;;;9.30;51.40;;;;;;5002939;28;20825;-82
2022/05/30 05:04:14;;;;;;;31.27;29.77;;;9.40;51.50;;;;;;5001992;28;20470;-82
2022/05/30 05:06:43;;;;;;;26.37;25.13;;;9.30;51.40;;;;;;5002654;28;20185;-81
2022/05/30 05:09:34;;;;;;;30.00;28.50;;;9.40;51.00;;;;;;4984523;28;20494;-81
2022/05/30 05:12:00;;;;;;;30.63;29.03;;;9.40;50.70;;;;;;4982759;28;20424;-80
2022/05/30 05:14:25;;;;;;;31.23;29.30;;;9.30;50.80;;;;;;4981185;28;20856;-80
2022/05/30 05:16:51;;;;;;;29.83;28.43;;;9.30;51.00;;;;;;4981327;28;20685;-82
2022/05/30 05:19:17;;;;;;;28.70;27.20;;;9.40;51.80;;;;;;4982341;28;20627;-80
2022/05/30 05:21:45;;;;;;;28.53;27.30;;;9.40;51.60;;;;;;4984382;28;20224;-81
2022/05/30 05:24:12;;;;;;;28.30;26.53;;;9.50;51.50;;;;;;4982074;28;20265;-83
2022/05/30 05:26:49;;;;;;;29.50;27.83;;;9.60;51.70;;;;;;4981904;28;21000;-82
2022/05/30 05:29:16;;;;;;;27.50;26.20;;;9.70;51.10;;;;;;4984116;28;20536;-82
2022/05/30 05:31:45;;;;;;;27.73;26.33;;;9.80;50.70;;;;;;4981871;28;20436;-81
2022/05/30 05:34:14;;;;;;;28.37;26.67;;;9.90;50.80;;;;;;4982959;28;20429;-82
2022/05/30 05:36:44;;;;;;;29.23;27.53;;;9.80;51.20;;;;;;4983096;28;20557;-80
2022/05/30 05:39:10;;;;;;;27.33;26.10;;;9.90;50.80;;;;;;4981936;28;20414;-81
2022/05/30 05:41:36;;;;;;;27.47;26.20;;;9.90;51.30;;;;;;4981961;28;20417;-82
2022/05/30 05:44:02;;;;;;;28.60;27.10;;;10.00;50.60;;;;;;4981368;28;20933;-82
2022/05/30 05:46:30;;;;;;;28.27;26.87;;;10.10;50.30;;;;;;4981146;28;20421;-82
2022/05/30 05:48:57;;;;;;;27.80;26.40;;;10.10;50.70;;;;;;4982776;28;20413;-81
2022/05/30 05:51:24;;;;;;;27.97;26.43;;;10.20;50.40;;;;;;4981718;28;20425;-82
2022/05/30 05:53:50;;;;;;;25.93;24.63;;;10.30;50.60;;;;;;4982953;28;20512;-87
2022/05/30 05:56:19;;;;;;;26.50;24.87;;;10.30;50.40;;;;;;4981666;28;20556;-82
2022/05/30 05:58:46;;;;;;;25.60;24.20;;;10.40;49.90;;;;;;4984376;28;20433;-81
2022/05/30 06:01:22;;;;;;;27.37;25.83;;;10.20;50.10;;;;;;4982114;28;20424;-83
2022/05/30 06:03:51;;;;;;;26.20;24.90;;;10.10;50.30;;;;;;4981760;28;21188;-83
2022/05/30 06:06:16;;;;;;;27.70;26.20;;;10.20;51.40;;;;;;4981976;28;20824;-83
2022/05/30 06:08:42;;;;;;;27.93;26.63;;;10.40;50.00;;;;;;4983522;28;20427;-81
2022/05/30 06:11:14;;;;;;;25.93;24.83;;;10.40;49.90;;;;;;4984360;28;20288;-83
2022/05/30 06:13:42;;;;;;;27.83;26.43;;;10.40;49.70;;;;;;4994043;28;20200;-82
2022/05/30 06:16:13;;;;;;;25.23;24.13;;;10.50;50.90;;;;;;4996813;28;20451;-84
2022/05/30 06:18:39;;;;;;;27.60;26.20;;;10.50;50.50;;;;;;4983566;28;20991;-82
2022/05/30 06:21:05;;;;;;;26.77;25.27;;;10.50;50.00;;;;;;4982164;28;20532;-84
2022/05/30 06:23:30;;;;;;;26.93;25.53;;;10.70;49.90;;;;;;4983176;28;20421;-84
2022/05/30 06:25:57;;;;;;;26.70;25.43;;;10.80;49.80;;;;;;4984224;28;20409;-83
2022/05/30 06:28:23;;;;;;;27.30;26.03;;;10.90;49.10;;;;;;4981836;28;20955;-85
2022/05/30 06:30:49;;;;;;;28.77;27.37;;;11.00;49.10;;;;;;4983965;28;20421;-81
2022/05/30 06:33:14;;;;;;;28.53;27.03;;;11.10;48.00;;;;;;4980915;28;20189;-83
2022/05/30 06:35:41;;;;;;;30.00;27.93;;;11.20;47.80;;;;;;4984306;28;20246;-83
2022/05/30 06:38:09;;;;;;;27.13;25.93;;;11.30;47.40;;;;;;4982419;28;20209;-83
2022/05/30 06:40:35;;;;;;;27.13;25.63;;;11.20;46.90;;;;;;4981660;28;20410;-83
2022/05/30 06:43:00;;;;;;;27.57;26.00;;;11.20;47.00;;;;;;4983061;28;20417;-83
2022/05/30 06:45:26;;;;;;;27.90;26.60;;;11.30;47.50;;;;;;4984335;28;20444;-84
2022/05/30 06:47:52;;;;;;;29.93;27.83;;;11.40;47.20;;;;;;4982443;28;20208;-84
2022/05/30 06:50:18;;;;;;;30.17;28.57;;;11.50;46.80;;;;;;4982020;28;20425;-83
2022/05/30 06:52:44;;;;;;;29.17;27.13;;;11.50;46.00;;;;;;4981550;28;20181;-83
2022/05/30 06:55:10;;;;;;;27.53;26.30;;;11.60;46.60;;;;;;4983416;28;20879;-82
2022/05/30 07:00:36;;;;;;;26.97;25.67;;;11.90;45.30;;;;;;4970923;28;20867;-83
2022/05/30 07:03:01;;;;;;;28.07;26.57;;;11.80;45.60;;;;;;4973628;28;20425;-83
2022/05/30 07:05:27;;;;;;;27.60;26.30;;;11.80;45.10;;;;;;5009718;28;20424;-83
2022/05/30 07:07:56;;;;;;;28.40;27.10;;;11.90;45.50;;;;;;5010507;28;20276;-82
2022/05/30 07:10:22;;;;;;;27.73;26.30;;;11.90;45.80;;;;;;5004741;28;20248;-83
2022/05/30 07:12:48;;;;;;;27.93;26.63;;;12.10;44.50;;;;;;4991124;28;20467;-83
2022/05/30 07:15:14;;;;;;;30.20;28.73;;;12.10;44.10;;;;;;4990082;28;20464;-83
2022/05/30 07:17:39;;;;;;;27.47;26.37;;;12.20;43.60;;;;;;4990735;28;20210;-83
2022/05/30 07:20:06;;;;;;;27.90;26.70;;;12.30;43.60;;;;;;4997748;28;20189;-83
2022/05/30 07:22:31;;;;;;;27.27;25.97;;;12.30;44.30;;;;;;5011430;28;20649;-83
2022/05/30 07:24:57;;;;;;;28.07;26.57;;;12.50;43.80;;;;;;5009952;28;20424;-83
2022/05/30 07:27:23;;;;;;;27.60;26.40;;;12.50;43.70;;;;;;5010438;28;20208;-83
2022/05/30 07:29:49;;;;;;;26.37;25.07;;;12.50;42.90;;;;;;5003796;28;20189;-83
2022/05/30 07:32:14;;;;;;;26.80;25.50;;;12.50;42.10;;;;;;5010332;28;20185;-83
2022/05/30 07:34:40;;;;;;;26.70;25.50;;;12.50;41.80;;;;;;5009052;28;20789;-83
2022/05/30 07:37:06;;;;;;;25.47;24.27;;;12.70;40.70;;;;;;4993861;28;20209;-83
2022/05/30 07:39:36;;;;;;;25.80;24.60;;;12.80;40.50;;;;;;4994762;28;20560;-83
2022/05/30 07:42:03;;;;;;;24.23;23.23;;;12.90;39.50;;;;;;4994196;28;20548;-84
2022/05/30 07:44:29;;;;;;;26.33;24.97;;;13.00;39.10;;;;;;4994217;28;20428;-83
2022/05/30 07:46:54;;;;;;;26.50;25.40;;;13.00;38.20;;;;;;4994684;28;20433;-83
2022/05/30 07:49:20;;;;;;;25.87;24.67;;;12.90;37.50;;;;;;5013941;28;20268;-83
2022/05/30 07:51:46;;;;;;;24.33;23.33;;;13.00;38.00;;;;;;5014976;28;20178;-82
2022/05/30 07:54:12;;;;;;;25.50;24.17;;;13.00;37.00;;;;;;4999778;28;20194;-83
2022/05/30 07:56:38;;;;;;;23.43;22.40;;;13.10;37.40;;;;;;4993648;28;20540;-84
2022/05/30 07:59:03;;;;;;;24.70;23.60;;;13.20;36.80;;;;;;4997776;28;20503;-83
2022/05/30 08:01:29;;;;;;;24.67;23.47;;;13.30;37.40;;;;;;5013433;28;20481;-83
2022/05/30 08:03:55;;;;;;;24.30;23.40;;;13.50;37.20;;;;;;5013497;28;20184;-82
2022/05/30 08:06:26;;;;;;;25.80;24.60;;;13.50;36.50;;;;;;5012705;28;20177;-83
2022/05/30 08:08:52;;;;;;;26.07;24.77;;;13.50;35.30;;;;;;5013478;28;20608;-83
2022/05/30 08:11:20;;;;;;;24.57;23.57;;;13.60;34.60;;;;;;4995649;28;20928;-83
2022/05/30 08:13:46;;;;;;;24.07;23.07;;;13.50;35.20;;;;;;4993918;28;20413;-83
2022/05/30 08:16:21;;;;;;;25.00;23.53;;;13.60;34.60;;;;;;4993138;28;20449;-83
2022/05/30 08:18:47;;;;;;;24.87;23.50;;;13.70;34.40;;;;;;5010434;28;20475;-82
2022/05/30 08:21:15;;;;;;;24.47;23.50;;;13.80;32.60;;;;;;5003048;28;20838;-82
2022/05/30 08:23:41;;;;;;;24.90;23.77;;;13.90;32.70;;;;;;4993485;28;20260;-82
2022/05/30 08:26:07;;;;;;;24.20;23.10;;;14.00;31.10;;;;;;4993016;28;20417;-83
2022/05/30 08:28:33;;;;;;;23.20;22.20;;;14.10;32.40;;;;;;4993688;28;20509;-83
2022/05/30 08:30:59;;;;;;;24.17;23.17;;;14.20;32.40;;;;;;4993732;28;20571;-83
2022/05/30 08:33:25;;;;;;;24.70;23.47;;;14.20;30.00;;;;;;4993533;28;20512;-82
2022/05/30 08:36:06;;;;;;;25.83;24.63;;;14.10;30.90;;;;;;5002123;28;20900;-83
2022/05/30 08:38:36;;;;;;;23.20;22.30;;;14.20;32.00;;;;;;5012674;28;20205;-83
2022/05/30 08:43:58;;;;;;;24.07;22.97;;;14.30;29.60;;;;;;5014046;28;20512;-83
2022/05/30 08:46:36;;;;;;;22.77;21.87;;;14.50;30.40;;;;;;5012141;28;20786;-82
2022/05/30 08:49:43;;;;;;;24.30;23.20;;;14.60;26.80;;;;;;4995370;28;20425;-83
2022/05/30 08:52:27;;;;;;;23.02;22.02;;;14.70;27.20;;;;;;4992460;28;20409;-83
2022/05/30 08:54:58;;;;;;;22.60;21.70;;;14.70;27.70;;;;;;4992421;28;20650;-83
2022/05/30 08:57:32;;;;;;;23.97;22.87;;;14.80;28.50;;;;;;4993022;28;20496;-83
2022/05/30 09:00:10;;;;;;;22.77;21.87;;;14.90;27.80;;;;;;4992889;28;20432;-83
2022/05/30 09:02:46;;;;;;;23.37;22.30;;;14.90;26.50;;;;;;4993145;28;20943;-83
2022/05/30 09:05:17;;;;;;;22.70;21.90;;;14.80;25.00;;;;;;4992536;28;20461;-83
2022/05/30 09:07:49;;;;;;;21.37;20.53;;;14.70;26.10;;;;;;4992855;28;20428;-83
2022/05/30 09:10:28;;;;;;;21.63;20.83;;;14.70;26.40;;;;;;4992951;28;20452;-82
2022/05/30 09:13:06;;;;;;;22.43;21.37;;;14.80;26.10;;;;;;4992536;28;20524;-83
2022/05/30 09:15:42;;;;;;;22.77;21.97;;;15.10;26.20;;;;;;4992344;28;20987;-83
2022/05/30 09:18:26;;;;;;;22.50;21.60;;;15.10;26.70;;;;;;4992577;28;20464;-83
2022/05/30 09:20:53;;;;;;;22.53;21.57;;;15.10;25.50;;;;;;4986730;28;20921;-83
2022/05/30 09:23:24;;;;;;;22.40;21.60;;;15.20;24.80;;;;;;4986650;28;20425;-83
2022/05/30 09:25:56;;;;;;;22.20;21.30;;;15.20;24.60;;;;;;4978692;28;20445;-83
2022/05/30 09:28:23;;;;;;;22.10;21.30;;;15.20;23.20;;;;;;4978820;28;21002;-84
2022/05/30 09:31:15;;;;;;;21.80;21.00;;;15.30;22.00;;;;;;4979661;28;20487;-84
2022/05/30 09:34:05;;;;;;;22.00;20.90;;;15.40;21.50;;;;;;4992864;28;20451;-84
2022/05/30 09:36:45;;;;;;;22.00;21.20;;;15.60;21.50;;;;;;5000754;28;20534;-83
2022/05/30 09:39:18;;;;;;;23.13;22.03;;;15.70;23.40;;;;;;4999258;28;20480;-83
2022/05/30 09:41:43;;;;;;;24.07;22.77;;;15.80;22.20;;;;;;4999817;28;20531;-82
2022/05/30 09:44:39;;;;;;;23.77;22.67;;;16.00;22.50;;;;;;4985398;28;21100;-84
2022/05/30 09:47:13;;;;;;;23.27;22.38;;;15.90;22.00;;;;;;4979025;28;20440;-83
2022/05/30 09:49:42;;;;;;;22.27;21.40;;;15.90;22.70;;;;;;4978898;28;20221;-82
2022/05/30 09:52:33;;;;;;;21.60;20.80;;;15.90;21.20;;;;;;4991652;28;20448;-83
2022/05/30 09:54:59;;;;;;;23.20;21.77;;;15.80;23.40;;;;;;4978493;28;20657;-83
2022/05/30 09:57:25;;;;;;;22.57;21.27;;;15.90;22.00;;;;;;4977839;28;20479;-83
2022/05/30 09:59:53;;;;;;;22.40;21.27;;;16.20;22.40;;;;;;4979597;28;20457;-83
2022/05/30 10:02:25;;;;;;;21.60;20.37;;;16.30;22.40;;;;;;4983010;28;20619;-83
2022/05/30 10:05:01;;;;;;;21.50;20.70;;;16.50;20.60;;;;;;4995749;28;20456;-83
2022/05/30 10:07:28;;;;;;;20.80;19.90;;;16.30;21.50;;;;;;4998419;28;20843;-83
2022/05/30 10:09:53;;;;;;;21.70;20.70;;;16.30;21.10;;;;;;5000414;28;20444;-82
2022/05/30 10:12:33;;;;;;;21.60;20.40;;;16.30;20.80;;;;;;4984703;28;20449;-83
2022/05/30 10:14:59;;;;;;;22.27;21.33;;;16.30;19.50;;;;;;4959104;28;20222;-83
2022/05/30 10:17:33;;;;;;;21.70;20.90;;;16.40;19.90;;;;;;4964158;28;20458;-83
2022/05/30 10:20:03;;;;;;;20.80;19.93;;;16.60;19.00;;;;;;4959411;28;20465;-83
2022/05/30 10:28:51;;;;;;;20.20;19.50;;;16.70;18.20;;;;;;4980889;28;20452;-83
2022/05/30 10:31:26;;;;;;;20.57;19.87;;;16.90;18.00;;;;;;4977339;28;20712;-83
2022/05/30 10:34:00;;;;;;;21.17;20.30;;;17.00;19.70;;;;;;4987750;28;20494;-85
2022/05/30 10:37:00;;;;;;;20.80;19.90;;;17.00;18.50;;;;;;4993597;28;20890;-83
2022/05/30 10:39:51;;;;;;;20.90;20.10;;;17.10;18.40;;;;;;4981845;28;20499;-82
2022/05/30 10:42:20;;;;;;;21.37;20.50;;;17.20;17.10;;;;;;4979367;28;20453;-82
2022/05/30 10:45:04;;;;;;;20.27;19.47;;;17.20;16.90;;;;;;4979723;28;20540;-82
2022/05/30 10:47:41;;;;;;;20.63;19.93;;;17.30;17.40;;;;;;4980693;28;20444;-82
2022/05/30 10:50:13;;;;;;;19.73;18.77;;;17.40;18.40;;;;;;4978345;28;20484;-83
2022/05/30 10:53:02;;;;;;;20.20;19.50;;;17.50;16.30;;;;;;4993546;28;20448;-82
2022/05/30 10:55:40;;;;;;;20.83;20.03;;;17.50;17.50;;;;;;4982779;28;20451;-82
2022/05/30 10:58:22;;;;;;;21.90;20.80;;;17.30;17.00;;;;;;4971484;28;20464;-83
2022/05/30 11:00:54;;;;;;;19.80;19.10;;;17.20;16.80;;;;;;4952348;28;20500;-80
2022/05/30 11:03:39;;;;;;;20.30;19.60;;;17.00;17.00;;;;;;4979473;28;20692;-78
2022/05/30 11:06:24;;;;;;;20.50;19.80;;;16.80;15.50;;;;;;4978402;28;20480;-82
2022/05/30 11:08:58;;;;;;;21.30;20.50;;;16.60;15.70;;;;;;4960743;28;20822;-82
2022/05/30 11:11:59;;;;;;;19.70;18.90;;;16.50;17.10;;;;;;4989537;28;20530;-82
2022/05/30 11:14:37;;;;;;;20.40;19.70;;;16.50;17.10;;;;;;4981097;28;20606;-82
2022/05/30 11:17:32;;;;;;;21.60;20.70;;;16.80;17.10;;;;;;4997552;28;20479;-82
2022/05/30 11:20:07;;;;;;;21.10;20.40;;;17.10;16.00;;;;;;4979023;28;20973;-82
2022/05/30 11:22:42;;;;;;;21.70;20.90;;;17.10;16.40;;;;;;4992525;28;20451;-82
2022/05/30 11:25:14;;;;;;;21.57;20.60;;;17.30;16.60;;;;;;4985173;28;20463;-83
2022/05/30 11:28:07;;;;;;;20.50;19.40;;;17.60;15.00;;;;;;4980170;28;20449;-82
2022/05/30 11:30:48;;;;;;;20.83;20.13;;;18.00;15.60;;;;;;4981942;28;20445;-82
2022/05/30 11:33:27;;;;;;;21.13;20.43;;;18.20;15.90;;;;;;4980136;28;20441;-82
2022/05/30 11:35:56;;;;;;;21.00;20.20;;;18.10;15.50;;;;;;4987548;28;20534;-83
2022/05/30 11:38:50;;;;;;;20.70;20.00;;;18.00;15.60;;;;;;4989760;28;20507;-83
2022/05/30 11:41:28;;;;;;;21.47;20.47;;;18.00;14.70;;;;;;4994658;28;20458;-83
2022/05/30 11:44:13;;;;;;;20.87;19.87;;;17.90;15.00;;;;;;4996117;28;20966;-82
2022/05/30 11:47:13;;;;;;;22.20;20.80;;;17.90;16.80;;;;;;4980073;28;20834;-82
2022/05/30 11:50:00;;;;;;;22.13;20.80;;;18.00;16.10;;;;;;4969879;28;20830;-83
2022/05/30 11:52:46;;;;;;;20.40;19.63;;;17.90;15.10;;;;;;4990347;28;20448;-84
2022/05/30 11:55:23;;;;;;;21.00;20.20;;;17.90;14.30;;;;;;4989018;28;20559;-82
2022/05/30 11:58:10;;;;;;;20.50;19.70;;;17.80;14.90;;;;;;4980243;28;20473;-82
2022/05/30 12:00:41;;;;;;;22.17;21.37;;;18.00;15.20;;;;;;4980346;28;20449;-83
2022/05/30 12:03:32;;;;;;;21.70;20.90;;;17.90;15.70;;;;;;4979021;28;20453;-82
2022/05/30 12:06:26;;;;;;;22.20;21.40;;;17.90;15.70;;;;;;4998709;28;20718;-82
2022/05/30 12:09:07;;;;;;;21.40;20.60;;;17.80;16.30;;;;;;4977223;28;20463;-82
2022/05/30 12:11:54;;;;;;;21.63;20.83;;;17.60;15.80;;;;;;4998047;28;20566;-83
2022/05/30 12:14:36;;;;;;;20.27;19.43;;;17.70;14.80;;;;;;4999386;28;20486;-83
2022/05/30 12:23:47;;;;;;;21.77;20.88;;;17.70;15.30;;;;;;5000168;28;20419;-82
2022/05/30 12:24:06;;;;;;;21.07;20.27;;;17.70;15.60;;;;;;4984844;28;21023;-84
2022/05/30 12:26:52;;;;;;;20.00;19.30;;;17.80;13.80;;;;;;4976737;28;20452;-81
2022/05/30 12:29:39;;;;;;;19.50;18.70;;;17.80;14.20;;;;;;4980137;28;20896;-84
2022/05/30 12:32:11;;;;;;;20.40;19.70;;;17.90;14.70;;;;;;4978980;28;20464;-83
2022/05/30 12:37:44;;;;;;;20.33;19.63;;;18.20;13.70;;;;;;4982203;28;20456;-83
2022/05/30 12:40:35;;;;;;;20.43;19.73;;;18.30;14.30;;;;;;4979492;28;20452;-82
2022/05/30 12:43:15;;;;;;;20.57;19.77;;;18.40;14.20;;;;;;4971851;28;20453;-83
2022/05/30 12:46:06;;;;;;;21.20;20.30;;;18.30;13.60;;;;;;4994559;28;20453;-82
2022/05/30 12:48:37;;;;;;;20.77;19.97;;;18.40;14.30;;;;;;4981341;28;20461;-81
2022/05/30 12:51:28;;;;;;;21.23;20.40;;;18.30;13.40;;;;;;4978820;28;20489;-82
2022/05/30 12:53:59;;;;;;;20.60;19.87;;;18.30;12.90;;;;;;4993005;28;20457;-83
2022/05/30 12:56:40;;;;;;;20.90;19.80;;;18.30;14.10;;;;;;4988423;28;20457;-82
2022/05/30 12:59:06;;;;;;;21.03;20.23;;;17.90;13.00;;;;;;4978857;28;20528;-83
2022/05/30 13:01:44;;;;;;;20.47;19.67;;;17.90;13.50;;;;;;4978523;28;20636;-82
2022/05/30 13:04:15;;;;;;;20.43;19.73;;;18.10;14.30;;;;;;4979224;28;20229;-83
2022/05/30 13:07:08;;;;;;;21.30;20.13;;;18.30;14.10;;;;;;4979739;28;20457;-86
2022/05/30 13:09:40;;;;;;;20.50;19.80;;;18.60;14.60;;;;;;4977433;28;20441;-82
2022/05/30 13:12:12;;;;;;;21.50;20.60;;;18.40;13.30;;;;;;4978577;28;20963;-82
2022/05/30 13:14:40;;;;;;;22.10;21.10;;;18.10;14.50;;;;;;4980046;28;20316;-83